sensor_id;sensor_type;location;lat;lon;timestamp;temperature;humidity
76897;SHT30;65856;52.178;21.176;2023-03-20T00:00:16;6.47;60.28
76897;SHT30;65856;52.178;21.176;2023-03-20T00:02:54;6.40;60.39
76897;SHT30;65856;52.178;21.176;2023-03-20T00:05:25;6.33;60.53
76897;SHT30;65856;52.178;21.176;2023-03-20T00:07:58;6.33;60.61
76897;SHT30;65856;52.178;21.176;2023-03-20T00:10:31;6.27;60.67
76897;SHT30;65856;52.178;21.176;2023-03-20T00:13:06;6.26;60.84
76897;SHT30;65856;52.178;21.176;2023-03-20T00:15:46;6.24;60.91
76897;SHT30;65856;52.178;21.176;2023-03-20T00:18:18;6.21;61.00
76897;SHT30;65856;52.178;21.176;2023-03-20T00:20:52;6.23;60.98
76897;SHT30;65856;52.178;21.176;2023-03-20T00:23:22;6.23;61.00
76897;SHT30;65856;52.178;21.176;2023-03-20T00:25:53;6.23;61.04
76897;SHT30;65856;52.178;21.176;2023-03-20T00:28:29;6.22;61.10
76897;SHT30;65856;52.178;21.176;2023-03-20T00:31:09;6.24;61.21
76897;SHT30;65856;52.178;21.176;2023-03-20T00:33:51;6.25;61.30
76897;SHT30;65856;52.178;21.176;2023-03-20T00:36:23;6.29;61.30
76897;SHT30;65856;52.178;21.176;2023-03-20T00:38:55;6.32;61.30
76897;SHT30;65856;52.178;21.176;2023-03-20T00:41:26;6.35;61.30
76897;SHT30;65856;52.178;21.176;2023-03-20T00:44:16;6.38;61.25
76897;SHT30;65856;52.178;21.176;2023-03-20T00:46:52;6.38;61.19
76897;SHT30;65856;52.178;21.176;2023-03-20T00:49:25;6.36;61.23
76897;SHT30;65856;52.178;21.176;2023-03-20T00:52:00;6.40;61.29
76897;SHT30;65856;52.178;21.176;2023-03-20T00:54:34;6.39;61.22
76897;SHT30;65856;52.178;21.176;2023-03-20T00:57:05;6.35;61.33
76897;SHT30;65856;52.178;21.176;2023-03-20T00:59:47;6.33;61.33
76897;SHT30;65856;52.178;21.176;2023-03-20T01:02:24;6.29;61.45
76897;SHT30;65856;52.178;21.176;2023-03-20T01:04:56;6.29;61.54
76897;SHT30;65856;52.178;21.176;2023-03-20T01:07:29;6.27;61.54
76897;SHT30;65856;52.178;21.176;2023-03-20T01:10:00;6.23;61.57
76897;SHT30;65856;52.178;21.176;2023-03-20T01:12:32;6.21;61.64
76897;SHT30;65856;52.178;21.176;2023-03-20T01:15:03;6.17;61.77
76897;SHT30;65856;52.178;21.176;2023-03-20T01:17:48;6.14;61.88
76897;SHT30;65856;52.178;21.176;2023-03-20T01:20:19;6.10;61.99
76897;SHT30;65856;52.178;21.176;2023-03-20T01:22:53;6.08;62.17
76897;SHT30;65856;52.178;21.176;2023-03-20T01:25:24;6.06;62.19
76897;SHT30;65856;52.178;21.176;2023-03-20T01:27:55;6.05;62.19
76897;SHT30;65856;52.178;21.176;2023-03-20T01:30:28;6.05;62.38
76897;SHT30;65856;52.178;21.176;2023-03-20T01:33:00;6.04;62.49
76897;SHT30;65856;52.178;21.176;2023-03-20T01:35:41;6.04;62.48
76897;SHT30;65856;52.178;21.176;2023-03-20T01:38:14;6.03;62.62
76897;SHT30;65856;52.178;21.176;2023-03-20T01:40:52;6.02;62.67
76897;SHT30;65856;52.178;21.176;2023-03-20T01:43:27;5.99;62.64
76897;SHT30;65856;52.178;21.176;2023-03-20T01:46:00;6.00;62.64
76897;SHT30;65856;52.178;21.176;2023-03-20T01:48:57;6.05;62.62
76897;SHT30;65856;52.178;21.176;2023-03-20T01:51:35;6.09;62.65
76897;SHT30;65856;52.178;21.176;2023-03-20T01:54:08;6.14;62.57
76897;SHT30;65856;52.178;21.176;2023-03-20T01:56:45;6.14;62.51
76897;SHT30;65856;52.178;21.176;2023-03-20T01:59:24;6.11;62.50
76897;SHT30;65856;52.178;21.176;2023-03-20T02:01:59;6.11;62.57
76897;SHT30;65856;52.178;21.176;2023-03-20T02:04:32;6.13;62.58
76897;SHT30;65856;52.178;21.176;2023-03-20T02:07:09;6.10;62.58
76897;SHT30;65856;52.178;21.176;2023-03-20T02:09:43;6.08;62.60
76897;SHT30;65856;52.178;21.176;2023-03-20T02:12:17;6.07;62.60
76897;SHT30;65856;52.178;21.176;2023-03-20T02:14:49;6.07;62.57
76897;SHT30;65856;52.178;21.176;2023-03-20T02:17:21;6.06;62.58
76897;SHT30;65856;52.178;21.176;2023-03-20T02:19:56;6.05;62.64
76897;SHT30;65856;52.178;21.176;2023-03-20T02:26:03;5.99;62.83
76897;SHT30;65856;52.178;21.176;2023-03-20T02:39:21;5.81;63.30
76897;SHT30;65856;52.178;21.176;2023-03-20T02:42:16;5.77;63.38
76897;SHT30;65856;52.178;21.176;2023-03-20T02:45:01;5.77;63.43
76897;SHT30;65856;52.178;21.176;2023-03-20T02:47:44;5.72;63.54
76897;SHT30;65856;52.178;21.176;2023-03-20T02:50:25;5.72;63.61
76897;SHT30;65856;52.178;21.176;2023-03-20T02:53:10;5.74;63.65
76897;SHT30;65856;52.178;21.176;2023-03-20T02:55:53;5.79;63.62
76897;SHT30;65856;52.178;21.176;2023-03-20T02:58:37;5.85;63.59
76897;SHT30;65856;52.178;21.176;2023-03-20T03:01:16;5.88;63.54
76897;SHT30;65856;52.178;21.176;2023-03-20T03:03:54;5.91;63.46
76897;SHT30;65856;52.178;21.176;2023-03-20T03:06:31;5.91;63.50
76897;SHT30;65856;52.178;21.176;2023-03-20T03:09:05;5.90;63.53
76897;SHT30;65856;52.178;21.176;2023-03-20T03:11:42;5.84;63.56
76897;SHT30;65856;52.178;21.176;2023-03-20T03:14:26;5.80;63.64
76897;SHT30;65856;52.178;21.176;2023-03-20T03:17:04;5.77;63.63
76897;SHT30;65856;52.178;21.176;2023-03-20T03:19:37;5.73;63.61
76897;SHT30;65856;52.178;21.176;2023-03-20T03:22:13;5.70;63.70
76897;SHT30;65856;52.178;21.176;2023-03-20T03:24:46;5.66;63.61
76897;SHT30;65856;52.178;21.176;2023-03-20T03:27:18;5.58;63.66
76897;SHT30;65856;52.178;21.176;2023-03-20T03:29:54;5.57;63.85
76897;SHT30;65856;52.178;21.176;2023-03-20T03:32:29;5.56;63.95
76897;SHT30;65856;52.178;21.176;2023-03-20T03:35:03;5.53;64.01
76897;SHT30;65856;52.178;21.176;2023-03-20T03:37:44;5.49;64.03
76897;SHT30;65856;52.178;21.176;2023-03-20T03:40:26;5.49;64.12
76897;SHT30;65856;52.178;21.176;2023-03-20T03:43:07;5.46;64.23
76897;SHT30;65856;52.178;21.176;2023-03-20T03:45:47;5.41;64.41
76897;SHT30;65856;52.178;21.176;2023-03-20T03:48:25;5.35;64.54
76897;SHT30;65856;52.178;21.176;2023-03-20T03:51:02;5.34;64.64
76897;SHT30;65856;52.178;21.176;2023-03-20T03:53:40;5.35;64.69
76897;SHT30;65856;52.178;21.176;2023-03-20T03:56:19;5.39;64.61
76897;SHT30;65856;52.178;21.176;2023-03-20T03:58:57;5.42;64.62
76897;SHT30;65856;52.178;21.176;2023-03-20T04:01:33;5.47;64.53
76897;SHT30;65856;52.178;21.176;2023-03-20T04:04:06;5.46;64.55
76897;SHT30;65856;52.178;21.176;2023-03-20T04:06:41;5.47;64.61
76897;SHT30;65856;52.178;21.176;2023-03-20T04:09:11;5.49;64.51
76897;SHT30;65856;52.178;21.176;2023-03-20T04:11:42;5.46;64.51
76897;SHT30;65856;52.178;21.176;2023-03-20T04:14:18;5.42;64.58
76897;SHT30;65856;52.178;21.176;2023-03-20T04:16:49;5.43;64.62
76897;SHT30;65856;52.178;21.176;2023-03-20T04:19:20;5.44;64.63
76897;SHT30;65856;52.178;21.176;2023-03-20T04:21:51;5.41;64.68
76897;SHT30;65856;52.178;21.176;2023-03-20T04:24:22;5.35;64.64
76897;SHT30;65856;52.178;21.176;2023-03-20T04:26:53;5.31;64.72
76897;SHT30;65856;52.178;21.176;2023-03-20T04:29:24;5.27;64.87
76897;SHT30;65856;52.178;21.176;2023-03-20T04:31:55;5.24;65.00
76897;SHT30;65856;52.178;21.176;2023-03-20T04:34:26;5.20;65.05
76897;SHT30;65856;52.178;21.176;2023-03-20T04:36:57;5.16;65.16
76897;SHT30;65856;52.178;21.176;2023-03-20T04:39:27;5.14;65.25
76897;SHT30;65856;52.178;21.176;2023-03-20T04:41:58;5.13;65.31
76897;SHT30;65856;52.178;21.176;2023-03-20T04:44:29;5.10;65.45
76897;SHT30;65856;52.178;21.176;2023-03-20T04:47:01;5.11;65.52
76897;SHT30;65856;52.178;21.176;2023-03-20T04:49:32;5.10;65.50
76897;SHT30;65856;52.178;21.176;2023-03-20T04:52:03;5.12;65.50
76897;SHT30;65856;52.178;21.176;2023-03-20T04:54:34;5.18;65.46
76897;SHT30;65856;52.178;21.176;2023-03-20T04:57:04;5.25;65.40
76897;SHT30;65856;52.178;21.176;2023-03-20T04:59:35;5.29;65.32
76897;SHT30;65856;52.178;21.176;2023-03-20T05:02:06;5.34;65.20
76897;SHT30;65856;52.178;21.176;2023-03-20T05:04:40;5.38;65.13
76897;SHT30;65856;52.178;21.176;2023-03-20T05:07:11;5.37;65.10
76897;SHT30;65856;52.178;21.176;2023-03-20T05:09:41;5.36;65.19
76897;SHT30;65856;52.178;21.176;2023-03-20T05:12:12;5.37;65.32
76897;SHT30;65856;52.178;21.176;2023-03-20T05:14:43;5.37;65.48
76897;SHT30;65856;52.178;21.176;2023-03-20T05:17:14;5.41;65.45
76897;SHT30;65856;52.178;21.176;2023-03-20T05:19:45;5.40;65.33
76897;SHT30;65856;52.178;21.176;2023-03-20T05:22:16;5.36;65.45
76897;SHT30;65856;52.178;21.176;2023-03-20T05:24:47;5.32;65.57
76897;SHT30;65856;52.178;21.176;2023-03-20T05:27:18;5.35;65.69
76897;SHT30;65856;52.178;21.176;2023-03-20T05:29:49;5.37;65.70
76897;SHT30;65856;52.178;21.176;2023-03-20T05:32:19;5.41;65.76
76897;SHT30;65856;52.178;21.176;2023-03-20T05:34:50;5.46;65.78
76897;SHT30;65856;52.178;21.176;2023-03-20T05:37:21;5.50;65.80
76897;SHT30;65856;52.178;21.176;2023-03-20T05:39:52;5.57;65.72
76897;SHT30;65856;52.178;21.176;2023-03-20T05:42:23;5.64;65.75
76897;SHT30;65856;52.178;21.176;2023-03-20T05:44:54;5.74;66.02
76897;SHT30;65856;52.178;21.176;2023-03-20T05:47:25;5.86;66.03
76897;SHT30;65856;52.178;21.176;2023-03-20T05:49:56;6.04;66.09
76897;SHT30;65856;52.178;21.176;2023-03-20T05:52:26;6.22;65.92
76897;SHT30;65856;52.178;21.176;2023-03-20T05:54:57;6.40;65.80
76897;SHT30;65856;52.178;21.176;2023-03-20T05:57:28;6.64;65.20
76897;SHT30;65856;52.178;21.176;2023-03-20T05:59:59;6.82;64.83
76897;SHT30;65856;52.178;21.176;2023-03-20T06:02:31;6.98;64.42
76897;SHT30;65856;52.178;21.176;2023-03-20T06:05:02;7.15;64.07
76897;SHT30;65856;52.178;21.176;2023-03-20T06:07:33;7.35;63.73
76897;SHT30;65856;52.178;21.176;2023-03-20T06:10:06;7.56;63.38
76897;SHT30;65856;52.178;21.176;2023-03-20T06:12:39;7.77;62.44
76897;SHT30;65856;52.178;21.176;2023-03-20T06:15:10;7.97;61.91
76897;SHT30;65856;52.178;21.176;2023-03-20T06:17:41;8.18;61.65
76897;SHT30;65856;52.178;21.176;2023-03-20T06:20:12;8.38;60.84
76897;SHT30;65856;52.178;21.176;2023-03-20T06:22:44;8.58;60.35
76897;SHT30;65856;52.178;21.176;2023-03-20T06:25:15;8.80;59.91
76897;SHT30;65856;52.178;21.176;2023-03-20T06:27:47;9.02;59.37
76897;SHT30;65856;52.178;21.176;2023-03-20T06:30:18;9.21;59.01
76897;SHT30;65856;52.178;21.176;2023-03-20T06:32:49;9.39;58.63
76897;SHT30;65856;52.178;21.176;2023-03-20T06:35:20;9.58;58.46
76897;SHT30;65856;52.178;21.176;2023-03-20T06:37:51;9.76;57.72
76897;SHT30;65856;52.178;21.176;2023-03-20T06:40:21;9.95;57.32
76897;SHT30;65856;52.178;21.176;2023-03-20T06:42:53;10.15;56.86
76897;SHT30;65856;52.178;21.176;2023-03-20T06:45:24;10.40;56.25
76897;SHT30;65856;52.178;21.176;2023-03-20T06:47:55;10.61;55.56
76897;SHT30;65856;52.178;21.176;2023-03-20T06:50:26;10.83;55.29
76897;SHT30;65856;52.178;21.176;2023-03-20T06:52:57;11.10;54.79
76897;SHT30;65856;52.178;21.176;2023-03-20T06:55:29;11.38;54.06
76897;SHT30;65856;52.178;21.176;2023-03-20T06:58:00;11.62;53.68
76897;SHT30;65856;52.178;21.176;2023-03-20T07:00:30;11.86;53.46
76897;SHT30;65856;52.178;21.176;2023-03-20T07:03:01;12.10;52.82
76897;SHT30;65856;52.178;21.176;2023-03-20T07:05:32;12.34;52.33
76897;SHT30;65856;52.178;21.176;2023-03-20T07:08:04;12.59;52.10
76897;SHT30;65856;52.178;21.176;2023-03-20T07:10:35;12.81;51.54
76897;SHT30;65856;52.178;21.176;2023-03-20T07:13:06;13.08;51.13
76897;SHT30;65856;52.178;21.176;2023-03-20T07:15:37;13.35;50.34
76897;SHT30;65856;52.178;21.176;2023-03-20T07:18:08;13.41;49.96
76897;SHT30;65856;52.178;21.176;2023-03-20T07:20:39;13.36;49.60
76897;SHT30;65856;52.178;21.176;2023-03-20T07:23:10;13.30;49.45
76897;SHT30;65856;52.178;21.176;2023-03-20T07:25:41;13.34;49.46
76897;SHT30;65856;52.178;21.176;2023-03-20T07:28:12;13.51;49.16
76897;SHT30;65856;52.178;21.176;2023-03-20T07:30:43;13.75;48.74
76897;SHT30;65856;52.178;21.176;2023-03-20T07:33:13;13.93;48.16
76897;SHT30;65856;52.178;21.176;2023-03-20T07:35:44;14.18;48.22
76897;SHT30;65856;52.178;21.176;2023-03-20T07:38:20;14.53;47.52
76897;SHT30;65856;52.178;21.176;2023-03-20T07:40:53;14.86;46.82
76897;SHT30;65856;52.178;21.176;2023-03-20T07:43:24;15.15;46.15
76897;SHT30;65856;52.178;21.176;2023-03-20T07:45:55;15.46;46.05
76897;SHT30;65856;52.178;21.176;2023-03-20T07:48:27;15.85;45.54
76897;SHT30;65856;52.178;21.176;2023-03-20T07:50:59;16.20;44.62
76897;SHT30;65856;52.178;21.176;2023-03-20T07:53:30;16.44;44.25
76897;SHT30;65856;52.178;21.176;2023-03-20T07:56:00;16.65;43.84
76897;SHT30;65856;52.178;21.176;2023-03-20T07:58:32;16.77;43.45
76897;SHT30;65856;52.178;21.176;2023-03-20T08:01:03;16.82;43.21
76897;SHT30;65856;52.178;21.176;2023-03-20T08:03:34;16.94;43.04
76897;SHT30;65856;52.178;21.176;2023-03-20T08:06:06;17.04;43.00
76897;SHT30;65856;52.178;21.176;2023-03-20T08:08:37;17.19;42.58
76897;SHT30;65856;52.178;21.176;2023-03-20T08:11:08;17.29;42.52
76897;SHT30;65856;52.178;21.176;2023-03-20T08:13:39;17.41;42.05
76897;SHT30;65856;52.178;21.176;2023-03-20T08:16:10;17.63;41.75
76897;SHT30;65856;52.178;21.176;2023-03-20T08:18:41;17.87;41.40
76897;SHT30;65856;52.178;21.176;2023-03-20T08:21:12;18.04;40.95
76897;SHT30;65856;52.178;21.176;2023-03-20T08:23:43;18.02;40.49
76897;SHT30;65856;52.178;21.176;2023-03-20T08:26:13;17.90;40.65
76897;SHT30;65856;52.178;21.176;2023-03-20T08:28:44;17.97;40.71
76897;SHT30;65856;52.178;21.176;2023-03-20T08:31:15;18.09;40.35
76897;SHT30;65856;52.178;21.176;2023-03-20T08:33:46;18.24;40.12
76897;SHT30;65856;52.178;21.176;2023-03-20T08:36:16;18.39;40.27
76897;SHT30;65856;52.178;21.176;2023-03-20T08:38:47;18.50;40.09
76897;SHT30;65856;52.178;21.176;2023-03-20T08:41:18;18.52;39.99
76897;SHT30;65856;52.178;21.176;2023-03-20T08:43:49;18.51;39.79
76897;SHT30;65856;52.178;21.176;2023-03-20T08:46:20;18.39;39.49
76897;SHT30;65856;52.178;21.176;2023-03-20T08:48:51;18.16;39.45
76897;SHT30;65856;52.178;21.176;2023-03-20T08:51:22;17.96;39.73
76897;SHT30;65856;52.178;21.176;2023-03-20T08:53:53;17.97;40.01
76897;SHT30;65856;52.178;21.176;2023-03-20T08:56:23;17.95;40.02
76897;SHT30;65856;52.178;21.176;2023-03-20T08:58:53;18.00;39.62
76897;SHT30;65856;52.178;21.176;2023-03-20T09:01:24;18.03;39.50
76897;SHT30;65856;52.178;21.176;2023-03-20T09:03:55;18.19;39.40
76897;SHT30;65856;52.178;21.176;2023-03-20T09:06:26;18.40;39.29
76897;SHT30;65856;52.178;21.176;2023-03-20T09:08:58;18.59;39.14
76897;SHT30;65856;52.178;21.176;2023-03-20T09:11:29;18.73;38.74
76897;SHT30;65856;52.178;21.176;2023-03-20T09:14:00;18.93;38.52
76897;SHT30;65856;52.178;21.176;2023-03-20T09:16:31;19.13;38.18
76897;SHT30;65856;52.178;21.176;2023-03-20T09:19:02;19.30;37.80
76897;SHT30;65856;52.178;21.176;2023-03-20T09:21:33;19.42;37.74
76897;SHT30;65856;52.178;21.176;2023-03-20T09:24:04;19.60;37.47
76897;SHT30;65856;52.178;21.176;2023-03-20T09:26:37;19.69;37.12
76897;SHT30;65856;52.178;21.176;2023-03-20T09:29:08;19.75;36.84
76897;SHT30;65856;52.178;21.176;2023-03-20T09:31:38;19.79;36.64
76897;SHT30;65856;52.178;21.176;2023-03-20T09:34:08;19.90;36.79
76897;SHT30;65856;52.178;21.176;2023-03-20T09:36:39;20.04;36.31
76897;SHT30;65856;52.178;21.176;2023-03-20T09:39:10;20.06;35.79
76897;SHT30;65856;52.178;21.176;2023-03-20T09:41:44;20.02;35.75
76897;SHT30;65856;52.178;21.176;2023-03-20T09:44:18;20.03;35.23
76897;SHT30;65856;52.178;21.176;2023-03-20T09:47:11;19.90;35.48
76897;SHT30;65856;52.178;21.176;2023-03-20T09:50:00;19.91;35.59
76897;SHT30;65856;52.178;21.176;2023-03-20T09:52:49;19.97;35.44
76897;SHT30;65856;52.178;21.176;2023-03-20T09:55:29;19.96;35.26
76897;SHT30;65856;52.178;21.176;2023-03-20T09:58:08;19.98;35.40
76897;SHT30;65856;52.178;21.176;2023-03-20T10:00:48;20.10;35.60
76897;SHT30;65856;52.178;21.176;2023-03-20T10:03:23;20.29;35.39
76897;SHT30;65856;52.178;21.176;2023-03-20T10:06:03;20.35;35.22
76897;SHT30;65856;52.178;21.176;2023-03-20T10:08:40;20.35;34.91
76897;SHT30;65856;52.178;21.176;2023-03-20T10:11:21;20.20;35.03
76897;SHT30;65856;52.178;21.176;2023-03-20T10:14:14;20.14;35.31
76897;SHT30;65856;52.178;21.176;2023-03-20T10:17:03;20.20;35.33
76897;SHT30;65856;52.178;21.176;2023-03-20T10:19:49;20.25;35.20
76897;SHT30;65856;52.178;21.176;2023-03-20T10:22:27;20.24;35.04
76897;SHT30;65856;52.178;21.176;2023-03-20T10:25:04;20.16;35.10
76897;SHT30;65856;52.178;21.176;2023-03-20T10:27:48;20.08;34.97
76897;SHT30;65856;52.178;21.176;2023-03-20T10:30:41;19.95;34.87
76897;SHT30;65856;52.178;21.176;2023-03-20T10:33:29;19.85;34.80
76897;SHT30;65856;52.178;21.176;2023-03-20T10:36:21;19.73;34.95
76897;SHT30;65856;52.178;21.176;2023-03-20T10:39:12;19.63;35.32
76897;SHT30;65856;52.178;21.176;2023-03-20T10:41:56;19.67;35.37
76897;SHT30;65856;52.178;21.176;2023-03-20T10:44:33;19.79;35.59
76897;SHT30;65856;52.178;21.176;2023-03-20T10:47:09;19.86;35.20
76897;SHT30;65856;52.178;21.176;2023-03-20T10:49:45;19.75;35.15
76897;SHT30;65856;52.178;21.176;2023-03-20T10:52:21;19.60;35.56
76897;SHT30;65856;52.178;21.176;2023-03-20T10:54:58;19.48;35.69
76897;SHT30;65856;52.178;21.176;2023-03-20T10:57:35;19.31;35.98
76897;SHT30;65856;52.178;21.176;2023-03-20T11:02:48;19.04;36.20
76897;SHT30;65856;52.178;21.176;2023-03-20T11:05:21;18.93;36.34
76897;SHT30;65856;52.178;21.176;2023-03-20T11:08:02;18.88;36.58
76897;SHT30;65856;52.178;21.176;2023-03-20T11:10:36;18.78;36.65
76897;SHT30;65856;52.178;21.176;2023-03-20T11:13:14;18.66;37.08
76897;SHT30;65856;52.178;21.176;2023-03-20T11:15:54;18.57;37.17
76897;SHT30;65856;52.178;21.176;2023-03-20T11:18:37;18.49;37.18
76897;SHT30;65856;52.178;21.176;2023-03-20T11:21:14;18.41;37.40
76897;SHT30;65856;52.178;21.176;2023-03-20T11:23:49;18.40;37.51
76897;SHT30;65856;52.178;21.176;2023-03-20T11:26:26;18.36;37.91
76897;SHT30;65856;52.178;21.176;2023-03-20T11:29:06;18.33;38.16
76897;SHT30;65856;52.178;21.176;2023-03-20T11:31:49;18.31;38.55
76897;SHT30;65856;52.178;21.176;2023-03-20T11:34:22;18.32;38.56
76897;SHT30;65856;52.178;21.176;2023-03-20T11:36:59;18.27;38.70
76897;SHT30;65856;52.178;21.176;2023-03-20T11:39:53;18.27;38.92
76897;SHT30;65856;52.178;21.176;2023-03-20T11:42:31;18.30;39.33
76897;SHT30;65856;52.178;21.176;2023-03-20T11:45:03;18.38;39.58
76897;SHT30;65856;52.178;21.176;2023-03-20T11:47:47;18.48;39.85
76897;SHT30;65856;52.178;21.176;2023-03-20T11:50:28;18.53;39.77
76897;SHT30;65856;52.178;21.176;2023-03-20T11:53:02;18.52;39.36
76897;SHT30;65856;52.178;21.176;2023-03-20T11:55:58;18.50;39.29
76897;SHT30;65856;52.178;21.176;2023-03-20T11:58:38;18.50;39.49
76897;SHT30;65856;52.178;21.176;2023-03-20T12:01:21;18.43;39.40
76897;SHT30;65856;52.178;21.176;2023-03-20T12:03:58;18.33;39.42
76897;SHT30;65856;52.178;21.176;2023-03-20T12:09:27;18.26;40.52
76897;SHT30;65856;52.178;21.176;2023-03-20T12:12:06;18.22;40.26
76897;SHT30;65856;52.178;21.176;2023-03-20T12:14:49;18.16;40.69
76897;SHT30;65856;52.178;21.176;2023-03-20T12:17:33;18.13;40.74
76897;SHT30;65856;52.178;21.176;2023-03-20T12:20:15;18.02;40.43
76897;SHT30;65856;52.178;21.176;2023-03-20T12:23:00;17.94;40.66
76897;SHT30;65856;52.178;21.176;2023-03-20T12:25:42;17.92;40.75
76897;SHT30;65856;52.178;21.176;2023-03-20T12:28:19;17.90;40.83
76897;SHT30;65856;52.178;21.176;2023-03-20T12:31:02;17.87;40.68
76897;SHT30;65856;52.178;21.176;2023-03-20T12:33:44;17.81;40.99
76897;SHT30;65856;52.178;21.176;2023-03-20T12:36:25;17.75;41.19
76897;SHT30;65856;52.178;21.176;2023-03-20T12:39:02;17.73;41.48
76897;SHT30;65856;52.178;21.176;2023-03-20T12:41:43;17.67;41.70
76897;SHT30;65856;52.178;21.176;2023-03-20T12:44:37;17.62;41.87
76897;SHT30;65856;52.178;21.176;2023-03-20T12:47:16;17.54;42.03
76897;SHT30;65856;52.178;21.176;2023-03-20T12:50:08;17.49;42.12
76897;SHT30;65856;52.178;21.176;2023-03-20T12:52:52;17.46;42.26
76897;SHT30;65856;52.178;21.176;2023-03-20T12:55:41;17.43;42.37
76897;SHT30;65856;52.178;21.176;2023-03-20T12:58:27;17.42;42.50
76897;SHT30;65856;52.178;21.176;2023-03-20T13:01:11;17.39;42.32
76897;SHT30;65856;52.178;21.176;2023-03-20T13:06:51;17.26;41.88
76897;SHT30;65856;52.178;21.176;2023-03-20T13:09:39;17.21;42.19
76897;SHT30;65856;52.178;21.176;2023-03-20T13:12:30;17.11;42.28
76897;SHT30;65856;52.178;21.176;2023-03-20T13:15:15;16.99;42.39
76897;SHT30;65856;52.178;21.176;2023-03-20T13:18:00;16.88;42.49
76897;SHT30;65856;52.178;21.176;2023-03-20T13:20:43;16.82;42.70
76897;SHT30;65856;52.178;21.176;2023-03-20T13:23:24;16.76;42.76
76897;SHT30;65856;52.178;21.176;2023-03-20T13:26:09;16.72;42.93
76897;SHT30;65856;52.178;21.176;2023-03-20T13:28:56;16.69;43.20
76897;SHT30;65856;52.178;21.176;2023-03-20T13:31:41;16.65;43.45
76897;SHT30;65856;52.178;21.176;2023-03-20T13:34:32;16.66;43.63
76897;SHT30;65856;52.178;21.176;2023-03-20T13:37:29;16.64;43.93
76897;SHT30;65856;52.178;21.176;2023-03-20T13:40:10;16.63;44.32
76897;SHT30;65856;52.178;21.176;2023-03-20T13:42:51;16.60;44.61
76897;SHT30;65856;52.178;21.176;2023-03-20T13:45:29;16.58;44.87
76897;SHT30;65856;52.178;21.176;2023-03-20T13:48:07;16.57;45.08
76897;SHT30;65856;52.178;21.176;2023-03-20T13:50:54;16.54;45.44
76897;SHT30;65856;52.178;21.176;2023-03-20T13:53:38;16.48;45.99
76897;SHT30;65856;52.178;21.176;2023-03-20T13:56:30;16.40;46.58
76897;SHT30;65856;52.178;21.176;2023-03-20T13:59:29;16.35;47.06
76897;SHT30;65856;52.178;21.176;2023-03-20T14:02:18;16.31;47.60
76897;SHT30;65856;52.178;21.176;2023-03-20T14:05:00;16.27;48.31
76897;SHT30;65856;52.178;21.176;2023-03-20T14:07:41;16.17;48.97
76897;SHT30;65856;52.178;21.176;2023-03-20T14:13:09;16.06;50.18
76897;SHT30;65856;52.178;21.176;2023-03-20T14:15:46;16.00;50.69
76897;SHT30;65856;52.178;21.176;2023-03-20T14:18:23;15.97;51.17
76897;SHT30;65856;52.178;21.176;2023-03-20T14:20:55;15.90;51.81
76897;SHT30;65856;52.178;21.176;2023-03-20T14:23:33;15.85;52.23
76897;SHT30;65856;52.178;21.176;2023-03-20T14:26:08;15.79;52.64
76897;SHT30;65856;52.178;21.176;2023-03-20T14:28:53;15.75;53.07
76897;SHT30;65856;52.178;21.176;2023-03-20T14:31:29;15.71;53.61
76897;SHT30;65856;52.178;21.176;2023-03-20T14:36:55;15.59;54.41
76897;SHT30;65856;52.178;21.176;2023-03-20T14:39:35;15.53;54.87
76897;SHT30;65856;52.178;21.176;2023-03-20T14:42:20;15.46;55.34
76897;SHT30;65856;52.178;21.176;2023-03-20T14:48:10;15.36;56.74
76897;SHT30;65856;52.178;21.176;2023-03-20T14:51:00;15.36;57.39
76897;SHT30;65856;52.178;21.176;2023-03-20T14:53:50;15.32;57.81
76897;SHT30;65856;52.178;21.176;2023-03-20T14:56:29;15.29;57.92
76897;SHT30;65856;52.178;21.176;2023-03-20T14:59:02;15.22;58.25
76897;SHT30;65856;52.178;21.176;2023-03-20T15:01:46;15.19;58.80
76897;SHT30;65856;52.178;21.176;2023-03-20T15:04:25;15.17;58.89
76897;SHT30;65856;52.178;21.176;2023-03-20T15:07:12;15.15;59.20
76897;SHT30;65856;52.178;21.176;2023-03-20T15:09:52;15.13;59.65
76897;SHT30;65856;52.178;21.176;2023-03-20T15:12:29;15.10;60.28
76897;SHT30;65856;52.178;21.176;2023-03-20T15:15:04;15.09;61.00
76897;SHT30;65856;52.178;21.176;2023-03-20T15:17:52;15.05;62.00
76897;SHT30;65856;52.178;21.176;2023-03-20T15:20:29;15.02;62.40
76897;SHT30;65856;52.178;21.176;2023-03-20T15:23:02;14.96;62.69
76897;SHT30;65856;52.178;21.176;2023-03-20T15:25:35;14.92;62.89
76897;SHT30;65856;52.178;21.176;2023-03-20T15:28:10;14.85;63.21
76897;SHT30;65856;52.178;21.176;2023-03-20T15:30:45;14.81;63.58
76897;SHT30;65856;52.178;21.176;2023-03-20T15:33:23;14.78;63.87
76897;SHT30;65856;52.178;21.176;2023-03-20T15:35:58;14.74;64.08
76897;SHT30;65856;52.178;21.176;2023-03-20T15:38:38;14.69;64.38
76897;SHT30;65856;52.178;21.176;2023-03-20T15:41:22;14.67;64.57
76897;SHT30;65856;52.178;21.176;2023-03-20T15:44:01;14.66;64.89
76897;SHT30;65856;52.178;21.176;2023-03-20T15:46:55;14.63;65.22
76897;SHT30;65856;52.178;21.176;2023-03-20T15:49:30;14.62;65.79
76897;SHT30;65856;52.178;21.176;2023-03-20T15:52:02;14.60;65.89
76897;SHT30;65856;52.178;21.176;2023-03-20T15:54:48;14.57;66.08
76897;SHT30;65856;52.178;21.176;2023-03-20T15:57:20;14.52;66.49
76897;SHT30;65856;52.178;21.176;2023-03-20T15:59:57;14.43;66.54
76897;SHT30;65856;52.178;21.176;2023-03-20T16:02:29;14.37;66.52
76897;SHT30;65856;52.178;21.176;2023-03-20T16:05:01;14.33;66.60
76897;SHT30;65856;52.178;21.176;2023-03-20T16:07:35;14.29;66.62
76897;SHT30;65856;52.178;21.176;2023-03-20T16:10:14;14.24;66.67
76897;SHT30;65856;52.178;21.176;2023-03-20T16:12:52;14.18;66.43
76897;SHT30;65856;52.178;21.176;2023-03-20T16:15:24;14.14;66.33
76897;SHT30;65856;52.178;21.176;2023-03-20T16:17:58;14.13;66.11
76897;SHT30;65856;52.178;21.176;2023-03-20T16:20:33;14.12;65.93
76897;SHT30;65856;52.178;21.176;2023-03-20T16:23:12;14.08;65.96
76897;SHT30;65856;52.178;21.176;2023-03-20T16:25:56;14.05;65.89
76897;SHT30;65856;52.178;21.176;2023-03-20T16:28:29;14.01;65.91
76897;SHT30;65856;52.178;21.176;2023-03-20T16:31:06;13.94;66.02
76897;SHT30;65856;52.178;21.176;2023-03-20T16:33:42;13.93;66.05
76897;SHT30;65856;52.178;21.176;2023-03-20T16:36:15;13.86;65.94
76897;SHT30;65856;52.178;21.176;2023-03-20T16:38:55;13.77;66.06
76897;SHT30;65856;52.178;21.176;2023-03-20T16:41:34;13.72;66.24
76897;SHT30;65856;52.178;21.176;2023-03-20T16:44:10;13.69;66.33
76897;SHT30;65856;52.178;21.176;2023-03-20T16:46:56;13.70;66.28
76897;SHT30;65856;52.178;21.176;2023-03-20T16:53:10;13.76;66.32